sensor_id;sensor_type;location;lat;lon;timestamp;pressure;altitude;pressure_sealevel;temperature;humidity
29371;BME280;16357;52.188;7.838;2023-04-02T00:01:03;100366.72;;;7.74;65.81
29371;BME280;16357;52.188;7.838;2023-04-02T00:06:39;100384.88;;;7.70;65.81
29371;BME280;16357;52.188;7.838;2023-04-02T00:11:42;100382.50;;;7.67;66.07
29371;BME280;16357;52.188;7.838;2023-04-02T00:14:32;100400.47;;;7.65;66.17
29371;BME280;16357;52.188;7.838;2023-04-02T00:17:03;100393.47;;;7.64;65.85
29371;BME280;16357;52.188;7.838;2023-04-02T00:19:44;100402.44;;;7.63;66.08
29371;BME280;16357;52.188;7.838;2023-04-02T00:22:18;100414.94;;;7.62;65.85
29371;BME280;16357;52.188;7.838;2023-04-02T00:24:46;100422.44;;;7.59;65.64
29371;BME280;16357;52.188;7.838;2023-04-02T00:27:15;100416.50;;;7.55;65.88
29371;BME280;16357;52.188;7.838;2023-04-02T00:29:50;100420.31;;;7.53;65.59
29371;BME280;16357;52.188;7.838;2023-04-02T00:32:27;100417.09;;;7.49;65.82
29371;BME280;16357;52.188;7.838;2023-04-02T00:34:56;100437.91;;;7.45;66.05
29371;BME280;16357;52.188;7.838;2023-04-02T00:37:26;100420.34;;;7.43;65.40
29371;BME280;16357;52.188;7.838;2023-04-02T00:39:59;100431.47;;;7.38;65.32
29371;BME280;16357;52.188;7.838;2023-04-02T00:42:29;100434.53;;;7.34;65.62
29371;BME280;16357;52.188;7.838;2023-04-02T00:44:56;100439.34;;;7.30;65.55
29371;BME280;16357;52.188;7.838;2023-04-02T00:47:30;100436.97;;;7.27;65.79
29371;BME280;16357;52.188;7.838;2023-04-02T00:50:04;100439.75;;;7.25;65.52
29371;BME280;16357;52.188;7.838;2023-04-02T00:52:32;100466.56;;;7.24;65.50
29371;BME280;16357;52.188;7.838;2023-04-02T00:55:05;100463.91;;;7.24;65.67
29371;BME280;16357;52.188;7.838;2023-04-02T00:57:33;100472.19;;;7.21;65.62
29371;BME280;16357;52.188;7.838;2023-04-02T01:02:41;100491.84;;;7.20;65.00
29371;BME280;16357;52.188;7.838;2023-04-02T01:07:46;100492.28;;;7.15;65.18
29371;BME280;16357;52.188;7.838;2023-04-02T01:15:42;100519.38;;;7.11;65.29
29371;BME280;16357;52.188;7.838;2023-04-02T01:18:26;100507.03;;;7.10;65.32
29371;BME280;16357;52.188;7.838;2023-04-02T01:23:54;100523.03;;;7.10;64.86
29371;BME280;16357;52.188;7.838;2023-04-02T01:26:44;100525.13;;;7.06;64.83
29371;BME280;16357;52.188;7.838;2023-04-02T01:29:23;100542.38;;;7.02;64.62
29371;BME280;16357;52.188;7.838;2023-04-02T01:31:54;100546.31;;;6.98;64.52
29371;BME280;16357;52.188;7.838;2023-04-02T01:34:22;100550.94;;;6.96;64.71
29371;BME280;16357;52.188;7.838;2023-04-02T01:39:32;100568.91;;;6.94;64.71
29371;BME280;16357;52.188;7.838;2023-04-02T01:45:07;100584.34;;;6.90;64.11
29371;BME280;16357;52.188;7.838;2023-04-02T01:47:34;100594.28;;;6.88;64.40
29371;BME280;16357;52.188;7.838;2023-04-02T01:50:22;100588.41;;;6.85;64.04
29371;BME280;16357;52.188;7.838;2023-04-02T01:52:52;100593.16;;;6.81;63.21
29371;BME280;16357;52.188;7.838;2023-04-02T01:55:29;100600.69;;;6.76;63.17
29371;BME280;16357;52.188;7.838;2023-04-02T01:57:57;100605.59;;;6.71;63.23
29371;BME280;16357;52.188;7.838;2023-04-02T02:00:25;100598.97;;;6.65;63.17
29371;BME280;16357;52.188;7.838;2023-04-02T02:02:55;100614.41;;;6.62;62.98
29371;BME280;16357;52.188;7.838;2023-04-02T02:05:22;100617.47;;;6.57;62.81
29371;BME280;16357;52.188;7.838;2023-04-02T02:07:50;100615.19;;;6.52;62.76
29371;BME280;16357;52.188;7.838;2023-04-02T02:10:23;100614.63;;;6.49;62.75
29371;BME280;16357;52.188;7.838;2023-04-02T02:12:51;100610.69;;;6.43;62.94
29371;BME280;16357;52.188;7.838;2023-04-02T02:15:20;100616.13;;;6.42;62.67
29371;BME280;16357;52.188;7.838;2023-04-02T02:17:47;100628.88;;;6.38;62.72
29371;BME280;16357;52.188;7.838;2023-04-02T02:20:15;100631.81;;;6.35;62.75
29371;BME280;16357;52.188;7.838;2023-04-02T02:22:46;100634.75;;;6.32;62.32
29371;BME280;16357;52.188;7.838;2023-04-02T02:25:17;100640.31;;;6.29;62.69
29371;BME280;16357;52.188;7.838;2023-04-02T02:28:05;100644.22;;;6.25;62.23
29371;BME280;16357;52.188;7.838;2023-04-02T02:30:45;100650.06;;;6.19;62.45
29371;BME280;16357;52.188;7.838;2023-04-02T02:33:31;100667.16;;;6.16;62.10
29371;BME280;16357;52.188;7.838;2023-04-02T02:41:40;100681.38;;;6.05;62.06
29371;BME280;16357;52.188;7.838;2023-04-02T02:46:40;100697.63;;;6.02;63.01
29371;BME280;16357;52.188;7.838;2023-04-02T02:49:14;100698.59;;;6.01;62.99
29371;BME280;16357;52.188;7.838;2023-04-02T02:51:57;100700.41;;;6.01;62.40
29371;BME280;16357;52.188;7.838;2023-04-02T02:54:24;100711.19;;;5.99;62.04
29371;BME280;16357;52.188;7.838;2023-04-02T02:56:56;100713.13;;;5.97;62.73
29371;BME280;16357;52.188;7.838;2023-04-02T02:59:26;100717.75;;;5.95;62.56
29371;BME280;16357;52.188;7.838;2023-04-02T03:01:55;100718.81;;;5.92;62.30
29371;BME280;16357;52.188;7.838;2023-04-02T03:04:23;100719.91;;;5.90;62.18
29371;BME280;16357;52.188;7.838;2023-04-02T03:06:55;100720.16;;;5.87;62.07
29371;BME280;16357;52.188;7.838;2023-04-02T03:09:44;100733.72;;;5.84;62.05
29371;BME280;16357;52.188;7.838;2023-04-02T03:12:28;100742.06;;;5.79;62.10
29371;BME280;16357;52.188;7.838;2023-04-02T03:15:29;100754.78;;;5.76;62.10
29371;BME280;16357;52.188;7.838;2023-04-02T03:18:04;100762.94;;;5.74;62.31
29371;BME280;16357;52.188;7.838;2023-04-02T03:20:37;100753.38;;;5.71;62.33
29371;BME280;16357;52.188;7.838;2023-04-02T03:23:16;100761.47;;;5.70;62.26
29371;BME280;16357;52.188;7.838;2023-04-02T03:26:03;100766.78;;;5.70;62.02
29371;BME280;16357;52.188;7.838;2023-04-02T03:28:40;100776.59;;;5.69;62.43
29371;BME280;16357;52.188;7.838;2023-04-02T03:31:22;100780.34;;;5.67;61.53
29371;BME280;16357;52.188;7.838;2023-04-02T03:33:57;100788.59;;;5.64;61.66
29371;BME280;16357;52.188;7.838;2023-04-02T03:36:34;100795.00;;;5.61;61.76
29371;BME280;16357;52.188;7.838;2023-04-02T03:39:11;100789.94;;;5.58;61.65
29371;BME280;16357;52.188;7.838;2023-04-02T03:41:50;100805.16;;;5.56;61.74
29371;BME280;16357;52.188;7.838;2023-04-02T03:44:42;100805.41;;;5.53;61.41
29371;BME280;16357;52.188;7.838;2023-04-02T03:47:13;100815.31;;;5.51;61.58
29371;BME280;16357;52.188;7.838;2023-04-02T03:49:45;100826.91;;;5.50;61.95
29371;BME280;16357;52.188;7.838;2023-04-02T03:52:22;100829.72;;;5.48;62.15
29371;BME280;16357;52.188;7.838;2023-04-02T03:54:49;100836.88;;;5.48;61.95
29371;BME280;16357;52.188;7.838;2023-04-02T03:57:31;100835.16;;;5.47;62.17
29371;BME280;16357;52.188;7.838;2023-04-02T04:00:24;100841.44;;;5.46;62.33
29371;BME280;16357;52.188;7.838;2023-04-02T04:02:58;100847.63;;;5.46;62.13
29371;BME280;16357;52.188;7.838;2023-04-02T04:05:33;100854.75;;;5.46;61.97
29371;BME280;16357;52.188;7.838;2023-04-02T04:08:05;100852.19;;;5.44;61.80
29371;BME280;16357;52.188;7.838;2023-04-02T04:10:33;100866.59;;;5.42;61.68
29371;BME280;16357;52.188;7.838;2023-04-02T04:13:08;100872.06;;;5.40;61.87
29371;BME280;16357;52.188;7.838;2023-04-02T04:15:49;100870.59;;;5.36;61.37
29371;BME280;16357;52.188;7.838;2023-04-02T04:21:16;100883.63;;;5.28;61.19
29371;BME280;16357;52.188;7.838;2023-04-02T04:24:00;100891.97;;;5.23;61.19
29371;BME280;16357;52.188;7.838;2023-04-02T04:26:44;100893.19;;;5.19;61.28
29371;BME280;16357;52.188;7.838;2023-04-02T04:29:44;100883.72;;;5.15;61.37
29371;BME280;16357;52.188;7.838;2023-04-02T04:32:30;100899.09;;;5.12;61.27
29371;BME280;16357;52.188;7.838;2023-04-02T04:35:29;100918.03;;;5.07;61.33
29371;BME280;16357;52.188;7.838;2023-04-02T04:38:01;100919.25;;;5.03;61.21
29371;BME280;16357;52.188;7.838;2023-04-02T04:40:35;100915.97;;;4.99;61.52
29371;BME280;16357;52.188;7.838;2023-04-02T04:43:06;100930.31;;;4.97;61.63
29371;BME280;16357;52.188;7.838;2023-04-02T04:45:43;100938.44;;;4.95;61.61
29371;BME280;16357;52.188;7.838;2023-04-02T04:48:23;100940.13;;;4.96;61.45
29371;BME280;16357;52.188;7.838;2023-04-02T04:53:23;100954.72;;;4.91;61.64
29371;BME280;16357;52.188;7.838;2023-04-02T04:55:58;100973.56;;;4.88;61.33
29371;BME280;16357;52.188;7.838;2023-04-02T04:59:14;100962.19;;;4.86;61.52
29371;BME280;16357;52.188;7.838;2023-04-02T05:01:46;100971.13;;;4.84;61.86
29371;BME280;16357;52.188;7.838;2023-04-02T05:04:18;100976.66;;;4.81;61.33
29371;BME280;16357;52.188;7.838;2023-04-02T05:06:59;100996.25;;;4.80;61.34
29371;BME280;16357;52.188;7.838;2023-04-02T05:12:17;101001.66;;;4.79;61.44
29371;BME280;16357;52.188;7.838;2023-04-02T05:14:59;100999.97;;;4.78;61.66
29371;BME280;16357;52.188;7.838;2023-04-02T05:19:58;101012.41;;;4.77;61.50
29371;BME280;16357;52.188;7.838;2023-04-02T05:22:37;101026.63;;;4.76;61.11
29371;BME280;16357;52.188;7.838;2023-04-02T05:25:26;101025.69;;;4.77;61.66
29371;BME280;16357;52.188;7.838;2023-04-02T05:28:16;101037.28;;;4.76;61.22
29371;BME280;16357;52.188;7.838;2023-04-02T05:30:58;101047.06;;;4.76;61.16
29371;BME280;16357;52.188;7.838;2023-04-02T05:33:30;101054.09;;;4.77;61.34
29371;BME280;16357;52.188;7.838;2023-04-02T05:36:02;101058.53;;;4.76;61.65
29371;BME280;16357;52.188;7.838;2023-04-02T05:38:33;101091.31;;;4.77;61.32
29371;BME280;16357;52.188;7.838;2023-04-02T05:41:07;101074.28;;;4.79;61.76
29371;BME280;16357;52.188;7.838;2023-04-02T05:43:44;101085.75;;;4.80;61.54
29371;BME280;16357;52.188;7.838;2023-04-02T05:46:24;101091.91;;;4.80;61.11
29371;BME280;16357;52.188;7.838;2023-04-02T05:48:57;101097.00;;;4.83;61.47
29371;BME280;16357;52.188;7.838;2023-04-02T05:51:42;101102.31;;;4.83;61.20
29371;BME280;16357;52.188;7.838;2023-04-02T05:54:45;101112.72;;;4.87;61.51
29371;BME280;16357;52.188;7.838;2023-04-02T05:57:16;101124.84;;;4.91;61.39
29371;BME280;16357;52.188;7.838;2023-04-02T05:59:51;101120.28;;;4.93;61.46
29371;BME280;16357;52.188;7.838;2023-04-02T06:02:35;101127.19;;;4.95;61.39
29371;BME280;16357;52.188;7.838;2023-04-02T06:05:11;101131.44;;;4.98;61.43
29371;BME280;16357;52.188;7.838;2023-04-02T06:07:49;101142.69;;;5.01;61.45
29371;BME280;16357;52.188;7.838;2023-04-02T06:10:30;101153.00;;;5.06;61.21
29371;BME280;16357;52.188;7.838;2023-04-02T06:13:06;101150.97;;;5.10;61.03
29371;BME280;16357;52.188;7.838;2023-04-02T06:15:34;101153.41;;;5.13;60.66
29371;BME280;16357;52.188;7.838;2023-04-02T06:18:08;101159.47;;;5.15;60.93
29371;BME280;16357;52.188;7.838;2023-04-02T06:20:38;101163.72;;;5.17;60.99
29371;BME280;16357;52.188;7.838;2023-04-02T06:25:54;101168.56;;;5.23;60.52
29371;BME280;16357;52.188;7.838;2023-04-02T06:28:32;101174.63;;;5.25;60.65
29371;BME280;16357;52.188;7.838;2023-04-02T06:31:07;101187.72;;;5.28;59.93
29371;BME280;16357;52.188;7.838;2023-04-02T06:33:35;101189.44;;;5.30;59.71
29371;BME280;16357;52.188;7.838;2023-04-02T06:36:03;101187.59;;;5.30;60.09
29371;BME280;16357;52.188;7.838;2023-04-02T06:38:31;101192.81;;;5.32;60.13
29371;BME280;16357;52.188;7.838;2023-04-02T06:41:03;101192.59;;;5.35;59.94
29371;BME280;16357;52.188;7.838;2023-04-02T06:43:44;101211.09;;;5.36;59.90
29371;BME280;16357;52.188;7.838;2023-04-02T06:46:18;101207.38;;;5.39;59.36
29371;BME280;16357;52.188;7.838;2023-04-02T06:48:48;101214.41;;;5.40;59.40
29371;BME280;16357;52.188;7.838;2023-04-02T06:51:17;101223.22;;;5.40;59.40
29371;BME280;16357;52.188;7.838;2023-04-02T06:53:47;101236.41;;;5.42;59.63
29371;BME280;16357;52.188;7.838;2023-04-02T06:56:39;101227.47;;;5.43;58.81
29371;BME280;16357;52.188;7.838;2023-04-02T06:59:07;101234.38;;;5.45;58.86
29371;BME280;16357;52.188;7.838;2023-04-02T07:01:38;101245.75;;;5.47;58.89
29371;BME280;16357;52.188;7.838;2023-04-02T07:04:07;101256.28;;;5.49;59.27
29371;BME280;16357;52.188;7.838;2023-04-02T07:06:35;101270.34;;;5.51;59.12
29371;BME280;16357;52.188;7.838;2023-04-02T07:09:02;101268.31;;;5.55;58.83
29371;BME280;16357;52.188;7.838;2023-04-02T07:11:29;101277.78;;;5.59;59.18
29371;BME280;16357;52.188;7.838;2023-04-02T07:13:55;101276.56;;;5.63;59.10
29371;BME280;16357;52.188;7.838;2023-04-02T07:16:23;101281.56;;;5.67;58.89
29371;BME280;16357;52.188;7.838;2023-04-02T07:18:53;101285.72;;;5.71;59.05
29371;BME280;16357;52.188;7.838;2023-04-02T07:21:28;101296.91;;;5.77;58.62
29371;BME280;16357;52.188;7.838;2023-04-02T07:23:55;101294.09;;;5.78;58.44
29371;BME280;16357;52.188;7.838;2023-04-02T07:26:24;101301.13;;;5.79;58.34
29371;BME280;16357;52.188;7.838;2023-04-02T07:28:53;101316.16;;;5.80;58.14
29371;BME280;16357;52.188;7.838;2023-04-02T07:31:23;101314.31;;;5.81;57.87
29371;BME280;16357;52.188;7.838;2023-04-02T07:33:52;101316.88;;;5.82;58.16
29371;BME280;16357;52.188;7.838;2023-04-02T07:36:22;101315.91;;;5.83;58.33
29371;BME280;16357;52.188;7.838;2023-04-02T07:38:49;101332.50;;;5.87;58.14
29371;BME280;16357;52.188;7.838;2023-04-02T07:41:16;101326.13;;;5.89;58.33
29371;BME280;16357;52.188;7.838;2023-04-02T07:43:45;101333.81;;;5.94;57.78
29371;BME280;16357;52.188;7.838;2023-04-02T07:46:12;101333.47;;;5.99;57.55
29371;BME280;16357;52.188;7.838;2023-04-02T07:48:42;101336.75;;;6.02;57.83
29371;BME280;16357;52.188;7.838;2023-04-02T07:51:18;101344.41;;;6.07;57.97
29371;BME280;16357;52.188;7.838;2023-04-02T07:53:44;101344.19;;;6.10;58.26
29371;BME280;16357;52.188;7.838;2023-04-02T07:56:18;101353.53;;;6.15;57.70
29371;BME280;16357;52.188;7.838;2023-04-02T07:58:45;101346.91;;;6.21;57.12
29371;BME280;16357;52.188;7.838;2023-04-02T08:01:30;101359.66;;;6.29;57.23
29371;BME280;16357;52.188;7.838;2023-04-02T08:04:02;101366.34;;;6.34;57.11
29371;BME280;16357;52.188;7.838;2023-04-02T08:06:29;101375.94;;;6.37;56.62
29371;BME280;16357;52.188;7.838;2023-04-02T08:08:57;101378.25;;;6.42;55.95
29371;BME280;16357;52.188;7.838;2023-04-02T08:11:23;101383.50;;;6.43;55.51
29371;BME280;16357;52.188;7.838;2023-04-02T08:13:50;101383.50;;;6.43;55.25
29371;BME280;16357;52.188;7.838;2023-04-02T08:16:17;101387.97;;;6.43;55.69
29371;BME280;16357;52.188;7.838;2023-04-02T08:18:44;101399.47;;;6.43;55.11
29371;BME280;16357;52.188;7.838;2023-04-02T08:21:12;101402.16;;;6.43;55.41
29371;BME280;16357;52.188;7.838;2023-04-02T08:23:41;101418.88;;;6.45;55.41
29371;BME280;16357;52.188;7.838;2023-04-02T08:26:08;101428.66;;;6.45;54.72
29371;BME280;16357;52.188;7.838;2023-04-02T08:28:35;101420.56;;;6.46;54.65
29371;BME280;16357;52.188;7.838;2023-04-02T08:31:01;101424.81;;;6.49;54.35
29371;BME280;16357;52.188;7.838;2023-04-02T08:33:30;101424.81;;;6.49;54.20
29371;BME280;16357;52.188;7.838;2023-04-02T08:35:56;101444.31;;;6.49;53.92
29371;BME280;16357;52.188;7.838;2023-04-02T08:38:24;101434.63;;;6.48;53.81
29371;BME280;16357;52.188;7.838;2023-04-02T08:40:53;101431.00;;;6.49;54.27
29371;BME280;16357;52.188;7.838;2023-04-02T08:43:53;101431.75;;;6.51;54.80
29371;BME280;16357;52.188;7.838;2023-04-02T08:48:59;101442.47;;;6.63;54.81
29371;BME280;16357;52.188;7.838;2023-04-02T08:51:31;101440.06;;;6.71;54.74
29371;BME280;16357;52.188;7.838;2023-04-02T08:54:01;101447.41;;;6.80;54.60
29371;BME280;16357;52.188;7.838;2023-04-02T08:56:37;101451.94;;;6.91;54.77
29371;BME280;16357;52.188;7.838;2023-04-02T08:59:20;101455.59;;;7.01;54.18
29371;BME280;16357;52.188;7.838;2023-04-02T09:04:33;101460.41;;;7.20;53.77
29371;BME280;16357;52.188;7.838;2023-04-02T09:06:59;101462.47;;;7.28;53.50
29371;BME280;16357;52.188;7.838;2023-04-02T09:09:26;101470.75;;;7.36;53.18
29371;BME280;16357;52.188;7.838;2023-04-02T09:11:58;101471.84;;;7.44;54.08
29371;BME280;16357;52.188;7.838;2023-04-02T09:14:40;101460.22;;;7.57;53.83
29371;BME280;16357;52.188;7.838;2023-04-02T09:17:19;101481.34;;;7.71;53.90
29371;BME280;16357;52.188;7.838;2023-04-02T09:22:44;101490.97;;;7.96;52.91
29371;BME280;16357;52.188;7.838;2023-04-02T09:25:16;101488.44;;;8.06;52.93
29371;BME280;16357;52.188;7.838;2023-04-02T09:27:46;101497.53;;;8.14;52.61
29371;BME280;16357;52.188;7.838;2023-04-02T09:33:05;101508.59;;;8.21;50.98
29371;BME280;16357;52.188;7.838;2023-04-02T09:35:37;101509.47;;;8.22;51.34
29371;BME280;16357;52.188;7.838;2023-04-02T09:38:28;101512.97;;;8.22;51.48
29371;BME280;16357;52.188;7.838;2023-04-02T09:40:59;101517.09;;;8.26;51.98
29371;BME280;16357;52.188;7.838;2023-04-02T09:43:29;101519.88;;;8.36;51.92
29371;BME280;16357;52.188;7.838;2023-04-02T09:46:16;101520.78;;;8.48;51.64
29371;BME280;16357;52.188;7.838;2023-04-02T09:48:52;101522.44;;;8.60;51.66
29371;BME280;16357;52.188;7.838;2023-04-02T09:51:23;101524.22;;;8.71;51.41
29371;BME280;16357;52.188;7.838;2023-04-02T09:56:31;101536.22;;;8.99;51.22
29371;BME280;16357;52.188;7.838;2023-04-02T09:59:18;101526.19;;;9.12;50.96
29371;BME280;16357;52.188;7.838;2023-04-02T10:06:54;101537.59;;;9.47;50.39
29371;BME280;16357;52.188;7.838;2023-04-02T10:09:34;101537.53;;;9.58;50.54
29371;BME280;16357;52.188;7.838;2023-04-02T10:12:04;101541.28;;;9.66;49.86
29371;BME280;16357;52.188;7.838;2023-04-02T10:14:43;101552.75;;;9.78;50.06
29371;BME280;16357;52.188;7.838;2023-04-02T10:17:17;101548.44;;;9.87;49.90
29371;BME280;16357;52.188;7.838;2023-04-02T10:19:53;101558.38;;;9.96;50.19
29371;BME280;16357;52.188;7.838;2023-04-02T10:22:21;101553.91;;;10.06;50.01
29371;BME280;16357;52.188;7.838;2023-04-02T10:24:49;101561.88;;;10.18;49.50
29371;BME280;16357;52.188;7.838;2023-04-02T10:33:35;101587.91;;;10.27;45.97
29371;BME280;16357;52.188;7.838;2023-04-02T10:38:54;101606.63;;;9.96;46.40
29371;BME280;16357;52.188;7.838;2023-04-02T10:41:31;101609.16;;;9.77;46.57
29371;BME280;16357;52.188;7.838;2023-04-02T10:46:58;101609.44;;;9.41;47.98
29371;BME280;16357;52.188;7.838;2023-04-02T10:49:41;101625.41;;;9.32;48.09
29371;BME280;16357;52.188;7.838;2023-04-02T10:52:25;101624.09;;;9.26;47.52
29371;BME280;16357;52.188;7.838;2023-04-02T10:54:59;101614.72;;;9.20;47.77
29371;BME280;16357;52.188;7.838;2023-04-02T10:57:40;101627.16;;;9.10;47.27
29371;BME280;16357;52.188;7.838;2023-04-02T11:00:21;101609.19;;;9.01;47.78
29371;BME280;16357;52.188;7.838;2023-04-02T11:06:08;101631.59;;;8.89;48.27
29371;BME280;16357;52.188;7.838;2023-04-02T11:08:43;101636.34;;;8.85;48.54
29371;BME280;16357;52.188;7.838;2023-04-02T11:11:14;101630.84;;;8.87;49.01
29371;BME280;16357;52.188;7.838;2023-04-02T11:13:46;101635.94;;;8.90;49.30
29371;BME280;16357;52.188;7.838;2023-04-02T11:16:15;101629.88;;;8.99;49.10
29371;BME280;16357;52.188;7.838;2023-04-02T11:18:42;101639.59;;;9.11;49.42
29371;BME280;16357;52.188;7.838;2023-04-02T11:24:33;101632.78;;;9.51;49.27
29371;BME280;16357;52.188;7.838;2023-04-02T11:29:40;101642.44;;;9.74;48.89
29371;BME280;16357;52.188;7.838;2023-04-02T11:37:40;101662.25;;;10.04;48.25
29371;BME280;16357;52.188;7.838;2023-04-02T11:42:45;101661.72;;;10.10;46.88
29371;BME280;16357;52.188;7.838;2023-04-02T11:50:33;101665.13;;;9.91;46.52
29371;BME280;16357;52.188;7.838;2023-04-02T11:53:03;101674.91;;;9.81;46.13
29371;BME280;16357;52.188;7.838;2023-04-02T11:55:33;101680.78;;;9.75;46.75
29371;BME280;16357;52.188;7.838;2023-04-02T11:58:23;101692.72;;;9.71;47.12
29371;BME280;16357;52.188;7.838;2023-04-02T12:01:24;101685.69;;;9.70;46.63
29371;BME280;16357;52.188;7.838;2023-04-02T12:09:24;101707.13;;;9.70;47.18
29371;BME280;16357;52.188;7.838;2023-04-02T12:11:57;101705.75;;;9.75;47.60
29371;BME280;16357;52.188;7.838;2023-04-02T12:14:42;101712.91;;;9.86;47.52
29371;BME280;16357;52.188;7.838;2023-04-02T12:19:52;101721.19;;;10.15;47.58
29371;BME280;16357;52.188;7.838;2023-04-02T12:22:23;101717.22;;;10.30;46.53
29371;BME280;16357;52.188;7.838;2023-04-02T12:24:52;101719.00;;;10.41;46.21
29371;BME280;16357;52.188;7.838;2023-04-02T12:27:22;101731.59;;;10.50;46.18
29371;BME280;16357;52.188;7.838;2023-04-02T12:29:54;101733.50;;;10.60;46.02
29371;BME280;16357;52.188;7.838;2023-04-02T12:32:26;101735.38;;;10.69;46.38
29371;BME280;16357;52.188;7.838;2023-04-02T12:34:56;101727.56;;;10.77;45.87
29371;BME280;16357;52.188;7.838;2023-04-02T12:37:27;101727.00;;;10.83;45.44
29371;BME280;16357;52.188;7.838;2023-04-02T12:39:59;101732.09;;;10.86;45.15
29371;BME280;16357;52.188;7.838;2023-04-02T12:42:36;101726.63;;;10.88;44.86
29371;BME280;16357;52.188;7.838;2023-04-02T12:45:04;101724.06;;;10.86;44.71
29371;BME280;16357;52.188;7.838;2023-04-02T12:47:32;101722.63;;;10.82;44.23
29371;BME280;16357;52.188;7.838;2023-04-02T12:49:59;101723.88;;;10.78;45.07
29371;BME280;16357;52.188;7.838;2023-04-02T12:52:27;101723.03;;;10.77;45.37
29371;BME280;16357;52.188;7.838;2023-04-02T12:54:55;101735.06;;;10.83;45.42
29371;BME280;16357;52.188;7.838;2023-04-02T13:03:00;101731.22;;;11.07;43.85
29371;BME280;16357;52.188;7.838;2023-04-02T13:05:36;101725.00;;;11.06;43.81
29371;BME280;16357;52.188;7.838;2023-04-02T13:08:04;101733.44;;;11.02;42.60
29371;BME280;16357;52.188;7.838;2023-04-02T13:10:31;101735.25;;;10.91;42.44
29371;BME280;16357;52.188;7.838;2023-04-02T13:13:00;101744.94;;;10.83;42.74
29371;BME280;16357;52.188;7.838;2023-04-02T13:15:29;101744.16;;;10.71;43.15
29371;BME280;16357;52.188;7.838;2023-04-02T13:18:21;101743.97;;;10.63;44.07
29371;BME280;16357;52.188;7.838;2023-04-02T13:20:58;101738.03;;;10.59;43.92
29371;BME280;16357;52.188;7.838;2023-04-02T13:31:57;101736.13;;;10.71;45.04
29371;BME280;16357;52.188;7.838;2023-04-02T13:34:24;101724.00;;;10.76;44.51
29371;BME280;16357;52.188;7.838;2023-04-02T13:36:51;101728.69;;;10.84;44.28
29371;BME280;16357;52.188;7.838;2023-04-02T13:39:18;101735.34;;;10.90;44.12
29371;BME280;16357;52.188;7.838;2023-04-02T13:41:51;101737.38;;;10.97;44.51
29371;BME280;16357;52.188;7.838;2023-04-02T13:44:26;101738.81;;;11.02;44.41
29371;BME280;16357;52.188;7.838;2023-04-02T13:46:54;101744.91;;;11.04;44.07
29371;BME280;16357;52.188;7.838;2023-04-02T13:49:22;101743.78;;;11.06;43.93
29371;BME280;16357;52.188;7.838;2023-04-02T13:51:52;101754.09;;;11.11;43.92
29371;BME280;16357;52.188;7.838;2023-04-02T13:54:26;101750.47;;;11.12;43.82
29371;BME280;16357;52.188;7.838;2023-04-02T13:56:55;101741.41;;;11.13;43.53
29371;BME280;16357;52.188;7.838;2023-04-02T13:59:22;101744.09;;;11.13;43.51
29371;BME280;16357;52.188;7.838;2023-04-02T14:01:50;101754.81;;;11.13;43.15
29371;BME280;16357;52.188;7.838;2023-04-02T14:04:25;101755.81;;;11.12;43.22
29371;BME280;16357;52.188;7.838;2023-04-02T14:07:27;101761.31;;;11.10;43.14
29371;BME280;16357;52.188;7.838;2023-04-02T14:12:38;101757.22;;;11.06;44.18
29371;BME280;16357;52.188;7.838;2023-04-02T14:31:03;101748.88;;;11.09;43.93
29371;BME280;16357;52.188;7.838;2023-04-02T14:37:32;101750.47;;;11.21;43.30
29371;BME280;16357;52.188;7.838;2023-04-02T14:43:00;101749.53;;;11.32;44.20
29371;BME280;16357;52.188;7.838;2023-04-02T14:46:08;101750.84;;;11.38;44.05
29371;BME280;16357;52.188;7.838;2023-04-02T14:49:15;101749.28;;;11.45;43.95
29371;BME280;16357;52.188;7.838;2023-04-02T14:54:16;101758.66;;;11.60;44.05
29371;BME280;16357;52.188;7.838;2023-04-02T14:56:56;101765.31;;;11.66;43.30
29371;BME280;16357;52.188;7.838;2023-04-02T14:59:29;101770.44;;;11.69;43.20
29371;BME280;16357;52.188;7.838;2023-04-02T15:02:26;101772.00;;;11.72;43.46
29371;BME280;16357;52.188;7.838;2023-04-02T15:05:00;101769.03;;;11.75;43.53
29371;BME280;16357;52.188;7.838;2023-04-02T15:07:36;101776.66;;;11.79;43.49
29371;BME280;16357;52.188;7.838;2023-04-02T15:10:14;101773.31;;;11.87;44.75
29371;BME280;16357;52.188;7.838;2023-04-02T15:12:43;101777.44;;;11.91;43.42
29371;BME280;16357;52.188;7.838;2023-04-02T15:15:22;101774.31;;;11.96;43.31
29371;BME280;16357;52.188;7.838;2023-04-02T15:18:08;101776.56;;;12.00;43.33
29371;BME280;16357;52.188;7.838;2023-04-02T15:20:45;101773.47;;;12.05;43.18
29371;BME280;16357;52.188;7.838;2023-04-02T15:28:41;101776.75;;;12.38;42.89
29371;BME280;16357;52.188;7.838;2023-04-02T15:31:13;101784.09;;;12.45;42.33
29371;BME280;16357;52.188;7.838;2023-04-02T15:34:34;101780.97;;;12.50;42.24
29371;BME280;16357;52.188;7.838;2023-04-02T15:36:59;101796.25;;;12.49;41.39
29371;BME280;16357;52.188;7.838;2023-04-02T15:39:41;101787.94;;;12.43;41.09
29371;BME280;16357;52.188;7.838;2023-04-02T15:42:23;101784.22;;;12.34;41.51
29371;BME280;16357;52.188;7.838;2023-04-02T15:55:44;101797.84;;;12.03;41.45
29371;BME280;16357;52.188;7.838;2023-04-02T15:58:23;101800.94;;;11.99;41.31
29371;BME280;16357;52.188;7.838;2023-04-02T16:03:48;101807.28;;;11.98;42.22
29371;BME280;16357;52.188;7.838;2023-04-02T16:06:26;101809.72;;;12.01;43.19
29371;BME280;16357;52.188;7.838;2023-04-02T16:09:02;101817.06;;;11.99;41.97
29371;BME280;16357;52.188;7.838;2023-04-02T16:11:32;101820.03;;;11.96;41.76
29371;BME280;16357;52.188;7.838;2023-04-02T16:14:23;101821.84;;;11.95;42.40
29371;BME280;16357;52.188;7.838;2023-04-02T16:16:51;101836.19;;;11.96;42.04
29371;BME280;16357;52.188;7.838;2023-04-02T16:19:35;101831.50;;;11.98;42.04
29371;BME280;16357;52.188;7.838;2023-04-02T16:22:15;101826.69;;;12.01;42.20
29371;BME280;16357;52.188;7.838;2023-04-02T16:24:45;101837.06;;;12.06;42.18